createdAt,value
2018-05-11T00:00:38.826Z,4.00
2018-05-11T00:01:38.825Z,0.00
2018-05-11T00:02:38.687Z,0.00
2018-05-11T00:03:38.750Z,4.00
2018-05-11T00:04:38.649Z,0.00
2018-05-11T00:05:38.601Z,0.00
2018-05-11T00:06:38.572Z,0.00
2018-05-11T00:07:38.565Z,0.00
2018-05-11T00:08:38.519Z,0.00
2018-05-11T00:09:38.620Z,0.00
2018-05-11T00:10:38.999Z,0.00
2018-05-11T00:11:38.432Z,0.00
2018-05-11T00:12:38.449Z,0.00
2018-05-11T00:13:39.149Z,0.00
2018-05-11T00:14:38.397Z,0.00
2018-05-11T00:15:38.402Z,0.00
2018-05-11T00:16:38.396Z,0.00
2018-05-11T00:17:38.283Z,0.00
2018-05-11T00:18:39.027Z,0.00
2018-05-11T00:19:38.263Z,0.00
2018-05-11T00:20:38.333Z,0.00
2018-05-11T00:21:38.235Z,0.00
2018-05-11T00:22:38.196Z,0.00
2018-05-11T00:23:38.167Z,0.00
2018-05-11T00:24:38.631Z,0.00
2018-05-11T00:25:38.213Z,0.00
2018-05-11T00:26:38.058Z,0.00
2018-05-11T00:27:38.045Z,0.00
2018-05-11T00:28:38.021Z,0.00
2018-05-11T00:29:37.982Z,0.00
2018-05-11T00:30:38.126Z,0.00
2018-05-11T00:31:38.053Z,0.00
2018-05-11T00:32:38.489Z,0.00
2018-05-11T00:33:37.944Z,0.00
2018-05-11T00:34:37.869Z,0.00
2018-05-11T00:35:37.914Z,0.00
2018-05-11T00:36:37.998Z,0.00
2018-05-11T00:37:37.815Z,0.00
2018-05-11T00:38:38.351Z,0.00
2018-05-11T00:39:37.755Z,0.00
2018-05-11T00:40:37.760Z,0.00
2018-05-11T00:41:37.796Z,0.00
2018-05-11T00:42:37.664Z,0.00
2018-05-11T00:43:38.215Z,0.00
2018-05-11T00:44:37.646Z,0.00
2018-05-11T00:45:37.577Z,0.00
2018-05-11T00:46:37.564Z,0.00
2018-05-11T00:47:38.213Z,0.00
2018-05-11T00:48:37.520Z,0.00
2018-05-11T00:49:37.515Z,0.00
2018-05-11T00:50:37.442Z,0.00
2018-05-11T00:51:37.432Z,0.00
2018-05-11T00:52:37.403Z,0.00
2018-05-11T00:53:37.462Z,0.00
2018-05-11T00:54:37.361Z,0.00
2018-05-11T00:55:37.311Z,0.00
2018-05-11T00:56:37.424Z,0.00
2018-05-11T00:57:37.300Z,0.00
2018-05-11T00:58:37.253Z,0.00
2018-05-11T00:59:37.352Z,0.00
2018-05-11T01:00:37.207Z,0.00
2018-05-11T01:01:37.167Z,0.00
2018-05-11T01:02:37.752Z,0.00
2018-05-11T01:03:37.131Z,0.00
2018-05-11T01:04:37.174Z,0.00
2018-05-11T01:05:37.779Z,0.00
2018-05-11T01:06:37.175Z,0.00
2018-05-11T01:07:37.006Z,0.00
2018-05-11T01:08:36.977Z,0.00
2018-05-11T01:09:37.042Z,0.00
2018-05-11T01:10:37.078Z,0.00
2018-05-11T01:11:36.932Z,0.00
2018-05-11T01:12:36.880Z,0.00
2018-05-11T01:13:36.863Z,0.00
2018-05-11T01:14:36.902Z,0.00
2018-05-11T01:15:37.484Z,0.00
2018-05-11T01:16:36.824Z,0.00
2018-05-11T01:17:36.748Z,0.00
2018-05-11T01:18:36.765Z,0.00
2018-05-11T01:19:37.316Z,0.00
2018-05-11T01:20:37.316Z,0.00
2018-05-11T01:21:36.684Z,0.00
2018-05-11T01:22:37.516Z,0.00
2018-05-11T01:23:37.246Z,0.00
2018-05-11T01:24:36.594Z,0.00
2018-05-11T01:25:36.750Z,0.00
2018-05-11T01:26:36.521Z,0.00
2018-05-11T01:27:36.509Z,0.00
2018-05-11T01:28:36.577Z,0.00
2018-05-11T01:29:37.010Z,0.00
2018-05-11T01:30:36.416Z,0.00
2018-05-11T01:31:36.499Z,0.00
2018-05-11T01:32:36.409Z,0.00
2018-05-11T01:33:36.414Z,0.00
2018-05-11T01:34:36.847Z,0.00
2018-05-11T01:35:36.297Z,0.00
2018-05-11T01:36:36.281Z,0.00
2018-05-11T01:37:36.899Z,0.00
2018-05-11T01:38:36.760Z,0.00
2018-05-11T01:39:36.341Z,0.00
2018-05-11T01:40:36.165Z,0.00
2018-05-11T01:41:36.221Z,0.00
2018-05-11T01:42:36.242Z,0.00
2018-05-11T01:43:36.759Z,0.00
2018-05-11T01:44:36.597Z,0.00
2018-05-11T01:45:36.038Z,0.00
2018-05-11T01:46:36.012Z,0.00
2018-05-11T01:47:36.556Z,0.00
2018-05-11T01:48:36.641Z,0.00
2018-05-11T01:49:36.501Z,0.00
2018-05-11T01:50:36.436Z,0.00
2018-05-11T01:51:35.901Z,0.00
2018-05-11T01:52:35.945Z,0.00
2018-05-11T01:53:36.414Z,0.00
2018-05-11T01:54:36.721Z,0.00
2018-05-11T01:55:35.832Z,0.00
2018-05-11T01:56:35.735Z,0.00
2018-05-11T01:57:35.851Z,0.00
2018-05-11T01:58:35.815Z,0.00
2018-05-11T01:59:35.665Z,0.00
2018-05-11T02:00:35.717Z,0.00
2018-05-11T02:01:35.632Z,0.00
2018-05-11T02:02:36.088Z,0.00
2018-05-11T02:03:36.251Z,0.00
2018-05-11T02:04:35.551Z,0.00
2018-05-11T02:05:35.518Z,0.00
2018-05-11T02:06:35.823Z,0.00
2018-05-11T02:07:35.497Z,0.00
2018-05-11T02:08:35.469Z,0.00
2018-05-11T02:09:35.984Z,0.00
2018-05-11T02:10:35.931Z,0.00
2018-05-11T02:11:35.510Z,0.00
2018-05-11T02:12:35.856Z,0.00
2018-05-11T02:13:35.816Z,0.00
2018-05-11T02:14:35.925Z,0.00
2018-05-11T02:15:35.277Z,0.00
2018-05-11T02:16:35.748Z,0.00
2018-05-11T02:17:35.190Z,0.00
2018-05-11T02:18:35.667Z,0.00
2018-05-11T02:19:36.987Z,0.00
2018-05-11T02:20:35.183Z,0.00
2018-05-11T02:21:35.104Z,0.00
2018-05-11T02:22:35.086Z,0.00
2018-05-11T02:23:35.489Z,0.00
2018-05-11T02:24:35.560Z,0.00
2018-05-11T02:25:35.006Z,0.00
2018-05-11T02:26:35.507Z,0.00
2018-05-11T02:27:35.519Z,0.00
2018-05-11T02:28:34.880Z,0.00
2018-05-11T02:29:35.052Z,0.00
2018-05-11T02:30:35.421Z,0.00
2018-05-11T02:31:34.855Z,0.00
2018-05-11T02:32:34.819Z,0.00
2018-05-11T02:33:35.350Z,0.00
2018-05-11T02:34:35.407Z,0.00
2018-05-11T02:35:35.237Z,0.00
2018-05-11T02:36:34.723Z,0.00
2018-05-11T02:37:35.172Z,0.00
2018-05-11T02:38:34.679Z,0.00
2018-05-11T02:39:34.717Z,0.00
2018-05-11T02:40:35.143Z,0.00
2018-05-11T02:41:35.135Z,0.00
2018-05-11T02:42:34.584Z,0.00
2018-05-11T02:43:35.061Z,0.00
2018-05-11T02:44:35.096Z,0.00
2018-05-11T02:45:34.552Z,0.00
2018-05-11T02:46:34.435Z,0.00
2018-05-11T02:47:34.968Z,0.00
2018-05-11T02:48:34.389Z,0.00
2018-05-11T02:49:34.355Z,0.00
2018-05-11T02:50:34.384Z,0.00
2018-05-11T02:51:34.350Z,0.00
2018-05-11T02:52:34.256Z,0.00
2018-05-11T02:53:34.247Z,0.00
2018-05-11T02:54:34.756Z,0.00
2018-05-11T02:55:34.999Z,0.00
2018-05-11T02:56:34.249Z,0.00
2018-05-11T02:57:34.168Z,0.00
2018-05-11T02:58:34.124Z,0.00
2018-05-11T02:59:34.550Z,0.00
2018-05-11T03:00:34.078Z,0.00
2018-05-11T03:01:34.291Z,0.00
2018-05-11T03:02:34.019Z,0.00
2018-05-11T03:03:33.989Z,0.00
2018-05-11T03:04:33.992Z,0.00
2018-05-11T03:05:33.950Z,0.00
2018-05-11T03:06:34.023Z,0.00
2018-05-11T03:07:33.893Z,0.00
2018-05-11T03:08:33.844Z,0.00
2018-05-11T03:09:33.829Z,0.00
2018-05-11T03:10:33.857Z,0.00
2018-05-11T03:11:33.885Z,0.00
2018-05-11T03:12:33.734Z,0.00
2018-05-11T03:13:33.719Z,0.00
2018-05-11T03:14:33.680Z,0.00
2018-05-11T03:15:33.649Z,0.00
2018-05-11T03:16:33.716Z,0.00
2018-05-11T03:17:33.588Z,0.00
2018-05-11T03:18:33.737Z,0.00
2018-05-11T03:19:33.553Z,0.00
2018-05-11T03:20:33.549Z,0.00
2018-05-11T03:21:33.548Z,0.00
2018-05-11T03:22:33.586Z,0.00
2018-05-11T03:23:33.442Z,0.00
2018-05-11T03:24:33.415Z,0.00
2018-05-11T03:25:33.377Z,0.00
2018-05-11T03:26:33.403Z,0.00
2018-05-11T03:27:33.331Z,0.00
2018-05-11T03:28:33.385Z,0.00
2018-05-11T03:29:33.300Z,0.00
2018-05-11T03:30:33.261Z,0.00
2018-05-11T03:31:33.254Z,0.00
2018-05-11T03:32:33.198Z,0.00
2018-05-11T03:33:33.248Z,0.00
2018-05-11T03:34:33.177Z,0.00
2018-05-11T03:35:33.141Z,0.00
2018-05-11T03:36:33.102Z,0.00
2018-05-11T03:37:33.064Z,0.00
2018-05-11T03:38:33.118Z,0.00
2018-05-11T03:39:33.049Z,0.00
2018-05-11T03:40:32.996Z,0.00
2018-05-11T03:41:32.971Z,0.00
2018-05-11T03:42:32.936Z,8.00
2018-05-11T03:43:33.000Z,8.00
2018-05-11T03:44:32.887Z,8.00
2018-05-11T03:45:32.842Z,8.00
2018-05-11T03:46:32.843Z,8.00
2018-05-11T03:47:33.067Z,4.00
2018-05-11T03:48:32.887Z,4.00
2018-05-11T03:49:32.742Z,8.00
2018-05-11T03:50:32.801Z,8.00
2018-05-11T03:51:32.709Z,8.00
2018-05-11T03:52:32.681Z,8.00
2018-05-11T03:53:32.825Z,8.00
2018-05-11T03:54:32.693Z,8.00
2018-05-11T03:55:32.614Z,8.00
2018-05-11T03:56:32.591Z,8.00
2018-05-11T03:57:32.624Z,8.00
2018-05-11T03:58:32.576Z,8.00
2018-05-11T03:59:32.644Z,8.00
2018-05-11T04:00:32.470Z,8.00
2018-05-11T04:01:32.448Z,8.00
2018-05-11T04:02:32.420Z,8.00
2018-05-11T04:03:32.403Z,8.00
2018-05-11T04:04:32.337Z,8.00
2018-05-11T04:05:32.487Z,8.00
2018-05-11T04:06:32.411Z,0.00
2018-05-11T04:07:32.514Z,0.00
2018-05-11T04:08:32.376Z,0.00
2018-05-11T04:09:32.455Z,0.00
2018-05-11T04:10:32.299Z,0.00
2018-05-11T04:11:32.327Z,0.00
2018-05-11T04:12:32.215Z,0.00
2018-05-11T04:13:32.474Z,0.00
2018-05-11T04:14:32.103Z,0.00
2018-05-11T04:15:32.405Z,0.00
2018-05-11T04:16:32.165Z,0.00
2018-05-11T04:17:32.168Z,0.00
2018-05-11T04:18:32.257Z,0.00
2018-05-11T04:19:32.128Z,0.00
2018-05-11T04:20:32.418Z,0.00
2018-05-11T04:21:32.064Z,0.00
2018-05-11T04:22:31.874Z,0.00
2018-05-11T04:23:31.891Z,0.00
2018-05-11T04:24:31.833Z,0.00
2018-05-11T04:25:31.929Z,0.00
2018-05-11T04:26:31.802Z,0.00
2018-05-11T04:27:31.749Z,0.00
2018-05-11T04:28:31.730Z,0.00
2018-05-11T04:29:31.690Z,0.00
2018-05-11T04:30:31.721Z,0.00
2018-05-11T04:31:31.741Z,0.00
2018-05-11T04:32:31.644Z,0.00
2018-05-11T04:33:31.621Z,0.00
2018-05-11T04:34:31.570Z,0.00
2018-05-11T04:35:31.560Z,0.00
2018-05-11T04:36:31.636Z,0.00
2018-05-11T04:37:31.569Z,0.00
2018-05-11T04:38:31.463Z,0.00
2018-05-11T04:39:31.413Z,0.00
2018-05-11T04:40:31.430Z,0.00
2018-05-11T04:41:31.391Z,0.00
2018-05-11T04:42:31.431Z,0.00
2018-05-11T04:43:31.323Z,0.00
2018-05-11T04:44:31.284Z,0.00
2018-05-11T04:45:31.298Z,0.00
2018-05-11T04:46:31.245Z,0.00
2018-05-11T04:47:31.331Z,0.00
2018-05-11T04:48:31.232Z,0.00
2018-05-11T04:49:31.155Z,0.00
2018-05-11T04:50:31.153Z,0.00
2018-05-11T04:51:31.123Z,0.00
2018-05-11T04:52:31.183Z,0.00
2018-05-11T04:53:31.106Z,0.00
2018-05-11T04:54:31.061Z,0.00
2018-05-11T04:55:31.032Z,0.00
2018-05-11T04:56:31.005Z,0.00
2018-05-11T04:57:31.146Z,0.00
2018-05-11T04:58:30.926Z,0.00
2018-05-11T04:59:30.904Z,0.00
2018-05-11T05:00:30.859Z,0.00
2018-05-11T05:01:30.826Z,0.00
2018-05-11T05:02:30.941Z,0.00
2018-05-11T05:03:30.779Z,0.00
2018-05-11T05:04:30.795Z,0.00
2018-05-11T05:05:30.773Z,0.00
2018-05-11T05:06:30.716Z,0.00
2018-05-11T05:07:30.719Z,0.00
2018-05-11T05:08:30.786Z,0.00
2018-05-11T05:09:30.627Z,0.00
2018-05-11T05:10:30.593Z,0.00
2018-05-11T05:11:30.593Z,0.00
2018-05-11T05:12:30.547Z,0.00
2018-05-11T05:13:30.777Z,0.00
2018-05-11T05:14:30.551Z,0.00
2018-05-11T05:15:30.482Z,0.00
2018-05-11T05:16:30.447Z,0.00
2018-05-11T05:17:30.419Z,0.00
2018-05-11T05:18:30.372Z,0.00
2018-05-11T05:19:30.420Z,0.00
2018-05-11T05:20:30.342Z,0.00
2018-05-11T05:21:30.316Z,0.00
2018-05-11T05:22:30.299Z,0.00
2018-05-11T05:23:30.248Z,0.00
2018-05-11T05:24:30.382Z,0.00
2018-05-11T05:25:30.218Z,0.00
2018-05-11T05:26:30.196Z,0.00
2018-05-11T05:27:30.191Z,0.00
2018-05-11T05:28:30.114Z,0.00
2018-05-11T05:29:30.184Z,0.00
2018-05-11T05:30:30.056Z,0.00
2018-05-11T05:31:30.053Z,0.00
2018-05-11T05:32:30.050Z,0.00
2018-05-11T05:33:30.001Z,0.00
2018-05-11T05:34:30.063Z,0.00
2018-05-11T05:35:29.924Z,0.00
2018-05-11T05:36:29.896Z,0.00
2018-05-11T05:37:29.908Z,0.00
2018-05-11T05:38:29.854Z,0.00
2018-05-11T05:39:29.943Z,0.00
2018-05-11T05:40:29.885Z,0.00
2018-05-11T05:41:29.769Z,0.00
2018-05-11T05:42:29.764Z,0.00
2018-05-11T05:43:29.785Z,0.00
2018-05-11T05:44:29.693Z,0.00
2018-05-11T05:45:29.779Z,0.00
2018-05-11T05:46:29.651Z,0.00
2018-05-11T05:47:29.599Z,0.00
2018-05-11T05:48:29.598Z,0.00
2018-05-11T05:49:29.564Z,0.00
2018-05-11T05:50:29.640Z,0.00
2018-05-11T05:51:29.528Z,0.00
2018-05-11T05:52:29.484Z,0.00
2018-05-11T05:53:29.462Z,0.00
2018-05-11T05:54:29.409Z,0.00
2018-05-11T05:55:29.423Z,0.00
2018-05-11T05:56:29.485Z,0.00
2018-05-11T05:57:29.341Z,0.00
2018-05-11T05:58:29.383Z,0.00
2018-05-11T05:59:29.327Z,0.00
2018-05-11T06:00:29.264Z,0.00
2018-05-11T06:01:29.253Z,0.00
2018-05-11T06:02:29.382Z,0.00
2018-05-11T06:03:29.229Z,0.00
2018-05-11T06:04:29.162Z,0.00
2018-05-11T06:05:29.139Z,0.00
2018-05-11T06:06:29.210Z,0.00
2018-05-11T06:07:29.183Z,0.00
2018-05-11T06:08:29.060Z,0.00
2018-05-11T06:09:29.098Z,0.00
2018-05-11T06:10:29.000Z,0.00
2018-05-11T06:11:29.000Z,0.00
2018-05-11T06:12:29.058Z,0.00
2018-05-11T06:13:29.009Z,0.00
2018-05-11T06:14:28.883Z,0.00
2018-05-11T06:15:28.863Z,0.00
2018-05-11T06:16:28.850Z,0.00
2018-05-11T06:17:28.871Z,0.00
2018-05-11T06:18:28.923Z,0.00
2018-05-11T06:19:28.787Z,0.00
2018-05-11T06:20:28.747Z,0.00
2018-05-11T06:21:28.690Z,0.00
2018-05-11T06:22:28.685Z,0.00
2018-05-11T06:23:28.761Z,0.00
2018-05-11T06:24:28.657Z,8.00
2018-05-11T06:25:28.593Z,8.00
2018-05-11T06:26:28.587Z,8.00
2018-05-11T06:27:28.577Z,8.00
2018-05-11T06:28:28.614Z,8.00
2018-05-11T06:29:28.478Z,8.00
2018-05-11T06:30:28.448Z,8.00
2018-05-11T06:31:28.418Z,8.00
2018-05-11T06:32:28.416Z,8.00
2018-05-11T06:33:28.370Z,8.00
2018-05-11T06:34:28.531Z,8.00
2018-05-11T06:35:28.325Z,8.00
2018-05-11T06:36:28.306Z,8.00
2018-05-11T06:37:28.299Z,8.00
2018-05-11T06:38:28.302Z,8.00
2018-05-11T06:39:28.315Z,8.00
2018-05-11T06:40:28.212Z,8.00
2018-05-11T06:41:28.173Z,8.00
2018-05-11T06:42:28.142Z,8.00
2018-05-11T06:43:28.116Z,8.00
2018-05-11T06:44:28.181Z,8.00
2018-05-11T06:45:28.050Z,8.00
2018-05-11T06:46:28.059Z,8.00
2018-05-11T06:47:27.999Z,8.00
2018-05-11T06:48:27.983Z,8.00
2018-05-11T06:49:28.001Z,8.00
2018-05-11T06:50:28.019Z,8.00
2018-05-11T06:51:27.893Z,8.00
2018-05-11T06:52:27.874Z,8.00
2018-05-11T06:53:27.850Z,8.00
2018-05-11T06:54:27.826Z,8.00
2018-05-11T06:55:27.926Z,8.00
2018-05-11T06:56:27.774Z,8.00
2018-05-11T06:57:27.736Z,8.00
2018-05-11T06:58:27.720Z,8.00
2018-05-11T06:59:27.680Z,8.00
2018-05-11T07:00:27.749Z,8.00
2018-05-11T07:01:27.735Z,8.00
2018-05-11T07:02:27.666Z,8.00
2018-05-11T07:03:27.624Z,8.00
2018-05-11T07:04:27.541Z,8.00
2018-05-11T07:05:27.671Z,8.00
2018-05-11T07:06:27.490Z,8.00
2018-05-11T07:07:27.454Z,8.00
2018-05-11T07:08:27.452Z,8.00
2018-05-11T07:09:27.412Z,8.00
2018-05-11T07:10:27.395Z,8.00
2018-05-11T07:11:27.474Z,8.00
2018-05-11T07:12:27.370Z,8.00
2018-05-11T07:13:27.313Z,8.00
2018-05-11T07:14:27.293Z,8.00
2018-05-11T07:15:27.244Z,8.00
2018-05-11T07:16:27.327Z,8.00
2018-05-11T07:17:27.230Z,8.00
2018-05-11T07:18:27.173Z,8.00
2018-05-11T07:19:27.157Z,8.00
2018-05-11T07:20:27.099Z,8.00
2018-05-11T07:21:27.223Z,8.00
2018-05-11T07:22:27.049Z,8.00
2018-05-11T07:23:27.040Z,8.00
2018-05-11T07:24:27.005Z,8.00
2018-05-11T07:25:26.996Z,8.00
2018-05-11T07:26:27.026Z,8.00
2018-05-11T07:27:27.062Z,8.00
2018-05-11T07:28:26.916Z,8.00
2018-05-11T07:29:26.884Z,8.00
2018-05-11T07:30:26.851Z,8.00
2018-05-11T07:31:26.799Z,8.00
2018-05-11T07:32:26.950Z,8.00
2018-05-11T07:33:26.769Z,8.00
2018-05-11T07:34:26.746Z,8.00
2018-05-11T07:35:26.709Z,8.00
2018-05-11T07:36:26.757Z,8.00
2018-05-11T07:37:26.753Z,8.00
2018-05-11T07:38:26.613Z,8.00
2018-05-11T07:39:26.603Z,8.00
2018-05-11T07:40:26.583Z,8.00
2018-05-11T07:41:26.557Z,8.00
2018-05-11T07:42:26.631Z,8.00
2018-05-11T07:43:26.687Z,8.00
2018-05-11T07:44:26.508Z,8.00
2018-05-11T07:45:26.471Z,8.00
2018-05-11T07:46:26.405Z,8.00
2018-05-11T07:47:26.416Z,8.00
2018-05-11T07:48:26.520Z,8.00
2018-05-11T07:49:26.358Z,8.00
2018-05-11T07:50:26.312Z,8.00
2018-05-11T07:51:26.401Z,8.00
2018-05-11T07:52:26.253Z,8.00
2018-05-11T07:53:26.245Z,8.00
2018-05-11T07:54:26.313Z,8.00
2018-05-11T07:55:26.157Z,8.00
2018-05-11T07:56:26.152Z,8.00
2018-05-11T07:57:26.128Z,8.00
2018-05-11T07:58:26.133Z,8.00
2018-05-11T07:59:26.070Z,8.00
2018-05-11T08:00:26.036Z,8.00
2018-05-11T08:01:26.019Z,8.00
2018-05-11T08:02:25.985Z,8.00
2018-05-11T08:03:25.956Z,8.00
2018-05-11T08:04:25.925Z,8.00
2018-05-11T08:05:26.015Z,8.00
2018-05-11T08:06:25.883Z,8.00
2018-05-11T08:07:25.846Z,8.00
2018-05-11T08:08:25.830Z,8.00
2018-05-11T08:09:25.848Z,8.00
2018-05-11T08:10:25.850Z,8.00
2018-05-11T08:11:25.769Z,8.00
2018-05-11T08:12:25.701Z,8.00
2018-05-11T08:13:25.691Z,8.00
2018-05-11T08:14:25.811Z,8.00
2018-05-11T08:15:25.720Z,8.00
2018-05-11T08:16:25.618Z,8.00
2018-05-11T08:17:25.582Z,8.00
2018-05-11T08:18:25.558Z,8.00
2018-05-11T08:19:25.512Z,8.00
2018-05-11T08:20:25.594Z,8.00
2018-05-11T08:21:25.517Z,8.00
2018-05-11T08:22:25.450Z,8.00
2018-05-11T08:23:25.402Z,8.00
2018-05-11T08:24:25.417Z,8.00
2018-05-11T08:25:25.364Z,8.00
2018-05-11T08:26:25.433Z,8.00
2018-05-11T08:27:25.320Z,8.00
2018-05-11T08:28:25.285Z,8.00
2018-05-11T08:29:25.233Z,8.00
2018-05-11T08:30:25.226Z,8.00
2018-05-11T08:31:25.326Z,8.00
2018-05-11T08:32:25.223Z,8.00
2018-05-11T08:33:25.154Z,8.00
2018-05-11T08:34:25.133Z,8.00
2018-05-11T08:35:25.110Z,8.00
2018-05-11T08:36:25.100Z,8.00
2018-05-11T08:37:25.084Z,8.00
2018-05-11T08:38:24.997Z,8.00
2018-05-11T08:39:24.991Z,8.00
2018-05-11T08:40:24.970Z,8.00
2018-05-11T08:41:24.934Z,8.00
2018-05-11T08:42:25.001Z,8.00
2018-05-11T08:43:24.874Z,8.00
2018-05-11T08:44:24.865Z,8.00
2018-05-11T08:45:24.810Z,8.00
2018-05-11T08:46:24.806Z,8.00
2018-05-11T08:47:24.865Z,8.00
2018-05-11T08:48:24.719Z,8.00
2018-05-11T08:49:24.715Z,8.00
2018-05-11T08:50:24.700Z,8.00
2018-05-11T08:51:24.656Z,8.00
2018-05-11T08:52:24.747Z,8.00
2018-05-11T08:53:24.606Z,8.00
2018-05-11T08:54:24.592Z,8.00
2018-05-11T08:55:24.568Z,8.00
2018-05-11T08:56:24.552Z,8.00
2018-05-11T08:57:24.612Z,8.00
2018-05-11T08:58:24.471Z,8.00
2018-05-11T08:59:24.491Z,8.00
2018-05-11T09:00:24.435Z,8.00
2018-05-11T09:01:24.409Z,8.00
2018-05-11T09:02:24.370Z,8.00
2018-05-11T09:03:24.430Z,8.00
2018-05-11T09:04:24.317Z,8.00
2018-05-11T09:05:24.304Z,8.00
2018-05-11T09:06:24.251Z,8.00
2018-05-11T09:07:24.242Z,8.00
2018-05-11T09:08:24.267Z,8.00
2018-05-11T09:09:24.238Z,8.00
2018-05-11T09:10:24.142Z,8.00
2018-05-11T09:11:24.133Z,8.00
2018-05-11T09:12:24.111Z,8.00
2018-05-11T09:13:24.079Z,8.00
2018-05-11T09:14:24.152Z,8.00
2018-05-11T09:15:24.002Z,8.00
2018-05-11T09:16:23.977Z,8.00
2018-05-11T09:17:23.968Z,8.00
2018-05-11T09:18:23.933Z,8.00
2018-05-11T09:19:24.023Z,8.00
2018-05-11T09:20:23.902Z,8.00
2018-05-11T09:21:23.920Z,8.00
2018-05-11T09:22:23.836Z,8.00
2018-05-11T09:23:23.811Z,8.00
2018-05-11T09:24:23.814Z,8.00
2018-05-11T09:25:23.737Z,8.00
2018-05-11T09:26:23.726Z,8.00
2018-05-11T09:27:23.668Z,8.00
2018-05-11T09:28:23.650Z,8.00
2018-05-11T09:29:23.752Z,8.00
2018-05-11T09:30:23.600Z,8.00
2018-05-11T09:31:23.575Z,8.00
2018-05-11T09:32:23.556Z,8.00
2018-05-11T09:33:23.568Z,8.00
2018-05-11T09:34:23.637Z,8.00
2018-05-11T09:35:23.506Z,8.00
2018-05-11T09:36:23.454Z,8.00
2018-05-11T09:37:23.460Z,8.00
2018-05-11T09:38:23.397Z,8.00
2018-05-11T09:39:23.467Z,8.00
2018-05-11T09:40:23.447Z,8.00
2018-05-11T09:41:23.308Z,8.00
2018-05-11T09:42:23.308Z,8.00
2018-05-11T09:43:23.295Z,8.00
2018-05-11T09:44:23.249Z,8.00
2018-05-11T09:45:23.234Z,8.00
2018-05-11T09:46:23.239Z,8.00
2018-05-11T09:47:23.151Z,8.00
2018-05-11T09:48:23.112Z,8.00
2018-05-11T09:49:23.170Z,8.00
2018-05-11T09:50:23.110Z,8.00
2018-05-11T09:51:23.031Z,8.00
2018-05-11T09:52:23.023Z,8.00
2018-05-11T09:53:22.999Z,8.00
2018-05-11T09:54:22.990Z,8.00
2018-05-11T09:55:22.931Z,8.00
2018-05-11T09:56:22.935Z,8.00
2018-05-11T09:57:22.866Z,8.00
2018-05-11T09:58:22.862Z,8.00
2018-05-11T09:59:22.922Z,8.00
2018-05-11T10:00:22.776Z,8.00
2018-05-11T10:01:22.875Z,8.00
2018-05-11T10:02:22.727Z,8.00
2018-05-11T10:03:22.790Z,8.00
2018-05-11T10:04:22.685Z,8.00
2018-05-11T10:05:22.662Z,8.00
2018-05-11T10:06:22.723Z,8.00
2018-05-11T10:07:22.597Z,8.00
2018-05-11T10:08:22.567Z,8.00
2018-05-11T10:09:22.573Z,8.00
2018-05-11T10:10:22.535Z,8.00
2018-05-11T10:11:22.660Z,8.00
2018-05-11T10:12:22.491Z,8.00
2018-05-11T10:13:22.464Z,8.00
2018-05-11T10:14:22.422Z,8.00
2018-05-11T10:15:22.402Z,8.00
2018-05-11T10:16:22.368Z,8.00
2018-05-11T10:17:22.456Z,8.00
2018-05-11T10:18:22.317Z,8.00
2018-05-11T10:19:22.306Z,8.00
2018-05-11T10:20:22.270Z,8.00
2018-05-11T10:21:22.232Z,8.00
2018-05-11T10:22:22.301Z,8.00
2018-05-11T10:23:22.177Z,8.00
2018-05-11T10:24:22.148Z,8.00
2018-05-11T10:25:22.120Z,8.00
2018-05-11T10:26:22.112Z,8.00
2018-05-11T10:27:22.169Z,8.00
2018-05-11T10:28:22.070Z,8.00
2018-05-11T10:29:22.017Z,8.00
2018-05-11T10:30:21.977Z,8.00
2018-05-11T10:31:21.997Z,8.00
2018-05-11T10:32:22.015Z,8.00
2018-05-11T10:33:21.890Z,8.00
2018-05-11T10:34:21.946Z,8.00
2018-05-11T10:35:21.856Z,8.00
2018-05-11T10:36:21.830Z,8.00
2018-05-11T10:37:21.930Z,8.00
2018-05-11T10:38:21.808Z,8.00
2018-05-11T10:39:21.748Z,8.00
2018-05-11T10:40:21.701Z,8.00
2018-05-11T10:41:21.682Z,8.00
2018-05-11T10:42:21.798Z,8.00
2018-05-11T10:43:21.641Z,8.00
2018-05-11T10:44:21.611Z,8.00
2018-05-11T10:45:21.585Z,8.00
2018-05-11T10:46:21.575Z,8.00
2018-05-11T10:47:21.588Z,8.00
2018-05-11T10:48:21.597Z,8.00
2018-05-11T10:49:21.476Z,8.00
2018-05-11T10:50:21.428Z,8.00
2018-05-11T10:51:21.423Z,8.00
2018-05-11T10:52:21.383Z,8.00
2018-05-11T10:53:21.347Z,8.00
2018-05-11T10:54:21.424Z,8.00
2018-05-11T10:55:21.299Z,8.00
2018-05-11T10:56:21.289Z,8.00
2018-05-11T10:57:21.249Z,8.00
2018-05-11T10:58:21.226Z,8.00
2018-05-11T10:59:21.383Z,8.00
2018-05-11T11:00:21.186Z,8.00
2018-05-11T11:01:21.142Z,8.00
2018-05-11T11:02:21.198Z,8.00
2018-05-11T11:03:21.106Z,8.00
2018-05-11T11:04:21.205Z,8.00
2018-05-11T11:05:21.036Z,8.00
2018-05-11T11:06:21.006Z,8.00
2018-05-11T11:07:20.979Z,8.00
2018-05-11T11:08:20.966Z,8.00
2018-05-11T11:09:21.022Z,8.00
2018-05-11T11:10:20.902Z,8.00
2018-05-11T11:11:20.883Z,8.00
2018-05-11T11:12:20.858Z,8.00
2018-05-11T11:13:20.881Z,12.00
2018-05-11T11:14:20.883Z,8.00
2018-05-11T11:15:20.762Z,8.00
2018-05-11T11:16:20.756Z,8.00
2018-05-11T11:17:20.736Z,8.00
2018-05-11T11:18:20.673Z,8.00
2018-05-11T11:19:20.760Z,12.00
2018-05-11T11:20:20.646Z,12.00
2018-05-11T11:21:20.619Z,8.00
2018-05-11T11:22:20.592Z,8.00
2018-05-11T11:23:20.566Z,8.00
2018-05-11T11:24:20.580Z,8.00
2018-05-11T11:25:20.593Z,12.00
2018-05-11T11:26:20.480Z,12.00
2018-05-11T11:27:20.442Z,12.00
2018-05-11T11:28:20.419Z,12.00
2018-05-11T11:29:20.376Z,12.00
2018-05-11T11:30:20.372Z,16.00
2018-05-11T11:31:20.393Z,16.00
2018-05-11T11:32:20.352Z,20.00
2018-05-11T11:33:20.316Z,20.00
2018-05-11T11:34:20.336Z,24.00
2018-05-11T11:37:20.225Z,32.00
2018-05-11T11:38:20.148Z,36.00
2018-05-11T11:39:20.130Z,40.00
2018-05-11T11:40:20.110Z,48.00
2018-05-11T11:41:20.074Z,56.00
2018-05-11T11:42:20.121Z,60.00
2018-05-11T11:43:20.008Z,64.00
2018-05-11T11:44:20.015Z,64.00
2018-05-11T11:45:19.951Z,60.00
2018-05-11T11:46:19.938Z,52.00
2018-05-11T11:47:19.897Z,48.00
2018-05-11T11:48:19.902Z,44.00
2018-05-11T11:49:19.832Z,44.00
2018-05-11T11:50:19.827Z,44.00
2018-05-11T11:51:19.892Z,44.00
2018-05-11T11:52:19.801Z,44.00
2018-05-11T11:53:20.085Z,40.00
2018-05-11T11:54:19.852Z,44.00
2018-05-11T11:55:19.698Z,44.00
2018-05-11T11:56:19.812Z,44.00
2018-05-11T11:57:19.732Z,40.00
2018-05-11T11:58:19.630Z,44.00
2018-05-11T11:59:19.574Z,44.00
2018-05-11T12:00:19.541Z,44.00
2018-05-11T12:01:19.532Z,44.00
2018-05-11T12:02:19.483Z,48.00
2018-05-11T12:03:19.514Z,48.00
2018-05-11T12:04:19.435Z,48.00
2018-05-11T12:05:19.409Z,44.00
2018-05-11T12:06:19.376Z,48.00
2018-05-11T12:07:19.346Z,48.00
2018-05-11T12:08:19.375Z,52.00
2018-05-11T12:09:19.349Z,48.00
2018-05-11T12:10:19.293Z,52.00
2018-05-11T12:11:19.322Z,48.00
2018-05-11T12:12:19.237Z,52.00
2018-05-11T12:13:19.309Z,52.00
2018-05-11T12:14:19.189Z,52.00
2018-05-11T12:15:19.147Z,56.00
2018-05-11T12:16:19.124Z,56.00
2018-05-11T12:17:19.090Z,60.00
2018-05-11T12:18:19.178Z,60.00
2018-05-11T12:19:19.027Z,60.00
2018-05-11T12:20:19.021Z,64.00
2018-05-11T12:21:18.986Z,64.00
2018-05-11T12:22:18.966Z,64.00
2018-05-11T12:23:19.029Z,64.00
2018-05-11T12:24:18.970Z,64.00
2018-05-11T12:25:18.869Z,68.00
2018-05-11T12:26:18.856Z,64.00
2018-05-11T12:27:18.899Z,68.00
2018-05-11T12:28:18.839Z,72.00
2018-05-11T12:29:18.857Z,68.00
2018-05-11T12:30:18.756Z,72.00
2018-05-11T12:31:18.719Z,72.00
2018-05-11T12:32:18.686Z,68.00
2018-05-11T12:33:18.658Z,72.00
2018-05-11T12:34:18.690Z,72.00
2018-05-11T12:35:18.601Z,72.00
2018-05-11T12:36:18.585Z,76.00
2018-05-11T12:37:18.536Z,72.00
2018-05-11T12:38:18.539Z,76.00
2018-05-11T12:39:18.608Z,76.00
2018-05-11T12:40:18.489Z,76.00
2018-05-11T12:41:18.453Z,76.00
2018-05-11T12:42:18.421Z,80.00
2018-05-11T12:43:18.422Z,76.00
2018-05-11T12:44:18.455Z,76.00
2018-05-11T12:45:18.333Z,80.00
2018-05-11T12:46:18.314Z,80.00
2018-05-11T12:47:18.267Z,80.00
2018-05-11T12:48:18.281Z,80.00
2018-05-11T12:49:18.340Z,80.00
2018-05-11T12:50:18.199Z,80.00
2018-05-11T12:51:18.210Z,84.00
2018-05-11T12:52:18.161Z,84.00
2018-05-11T12:53:18.105Z,80.00
2018-05-11T12:54:18.245Z,80.00
2018-05-11T12:55:18.104Z,84.00
2018-05-11T12:56:18.043Z,84.00
2018-05-11T12:57:18.017Z,84.00
2018-05-11T12:58:17.995Z,84.00
2018-05-11T12:59:18.053Z,84.00
2018-05-11T13:00:17.951Z,84.00
2018-05-11T13:01:17.918Z,84.00
2018-05-11T13:02:17.864Z,88.00
2018-05-11T13:03:17.844Z,84.00
2018-05-11T13:04:17.885Z,84.00
2018-05-11T13:05:17.921Z,88.00
2018-05-11T13:06:17.764Z,88.00
2018-05-11T13:07:17.757Z,88.00
2018-05-11T13:08:17.716Z,88.00
2018-05-11T13:09:17.712Z,92.00
2018-05-11T13:10:17.825Z,88.00
2018-05-11T13:11:17.640Z,92.00
2018-05-11T13:12:17.614Z,88.00
2018-05-11T13:13:17.600Z,92.00
2018-05-11T13:14:17.542Z,88.00
2018-05-11T13:15:17.626Z,92.00
2018-05-11T13:16:17.520Z,92.00